Time;durP1;ratioP1;P1;durP2;ratioP2;P2;SDS_P1;SDS_P2;PMS_P1;PMS_P2;Temp;Humidity;BMP_temperature;BMP_pressure;BME280_temperature;BME280_humidity;BME280_pressure;Samples;Min_cycle;Max_cycle;Signal;HPM_P1;HPM_P2
2022/09/12 00:02:14;;;;;;;;;;;14.40;96.70;;;;;;5031531;28;20007;-67
2022/09/12 00:04:41;;;;;;;;;;;14.40;96.70;;;;;;5025474;28;20014;-66
2022/09/12 00:07:07;;;;;;;;;;;14.50;97.00;;;;;;5031164;28;20000;-66
2022/09/12 00:09:34;;;;;;;;;;;14.50;96.60;;;;;;5030944;28;19925;-67
2022/09/12 00:12:01;;;;;;;;;;;14.60;97.00;;;;;;5030547;28;19921;-66
2022/09/12 00:14:27;;;;;;;;;;;14.70;96.20;;;;;;5030962;28;19917;-67
2022/09/12 00:16:57;;;;;;;;;;;14.80;96.80;;;;;;5031388;28;19913;-69
2022/09/12 00:19:23;;;;;;;;;;;14.80;96.30;;;;;;5030840;28;20283;-67
2022/09/12 00:21:50;;;;;;;;;;;14.80;96.20;;;;;;5030967;28;19909;-67
2022/09/12 00:24:17;;;;;;;;;;;14.80;97.00;;;;;;5031029;28;19913;-68
2022/09/12 00:26:43;;;;;;;;;;;14.80;96.20;;;;;;5031043;28;19955;-68
2022/09/12 00:29:18;;;;;;;;;;;14.70;96.70;;;;;;5030807;28;19917;-68
2022/09/12 00:31:45;;;;;;;;;;;14.80;96.50;;;;;;5030876;28;19913;-67
2022/09/12 00:34:12;;;;;;;;;;;15.00;96.70;;;;;;5030835;28;20355;-67
2022/09/12 00:36:39;;;;;;;;;;;15.10;97.10;;;;;;5031178;28;19942;-67
2022/09/12 00:39:06;;;;;;;;;;;15.00;96.50;;;;;;5030597;28;19910;-68
2022/09/12 00:41:34;;;;;;;;;;;15.00;96.20;;;;;;5030128;28;19917;-68
2022/09/12 00:44:20;;;;;;;;;;;15.00;96.60;;;;;;5030516;28;19913;-67
2022/09/12 00:46:51;;;;;;;;;;;15.10;96.40;;;;;;5061492;28;20333;-68
2022/09/12 00:49:23;;;;;;;;;;;15.30;96.20;;;;;;5030409;28;19913;-69
2022/09/12 00:51:55;;;;;;;;;;;15.30;95.60;;;;;;5029983;28;20324;-69
2022/09/12 00:54:24;;;;;;;;;;;15.40;96.00;;;;;;5030626;28;20382;-69
2022/09/12 00:56:53;;;;;;;;;;;15.50;95.80;;;;;;5030527;28;19909;-68
2022/09/12 00:59:21;;;;;;;;;;;15.40;95.80;;;;;;5030179;28;19951;-69
2022/09/12 01:01:50;;;;;;;;;;;15.40;95.90;;;;;;5030403;28;19917;-69
2022/09/12 01:04:17;;;;;;;;;;;15.50;96.10;;;;;;5026531;28;20390;-69
2022/09/12 01:06:44;;;;;;;;;;;15.60;96.10;;;;;;5010113;28;19920;-69
2022/09/12 01:09:12;;;;;;;;;;;15.80;95.50;;;;;;5028638;28;19921;-69
2022/09/12 01:11:46;;;;;;;;;;;16.00;94.90;;;;;;5030057;28;19913;-69
2022/09/12 01:14:13;;;;;;;;;;;16.40;94.20;;;;;;5029998;28;19917;-70
2022/09/12 01:16:41;;;;;;;;;;;16.70;93.90;;;;;;5030196;28;20380;-68
2022/09/12 01:19:24;;;;;;;;;;;17.00;93.50;;;;;;5028044;28;19917;-68
2022/09/12 01:21:51;;;;;;;;;;;17.30;93.00;;;;;;5030085;28;19913;-69
2022/09/12 01:24:36;;;;;;;;;;;17.30;93.50;;;;;;5030151;28;20395;-67
2022/09/12 01:27:03;;;;;;;;;;;17.40;93.50;;;;;;5030047;28;19999;-67
2022/09/12 01:29:45;;;;;;;;;;;17.20;93.40;;;;;;5029737;28;19913;-67
2022/09/12 01:32:19;;;;;;;;;;;17.30;93.50;;;;;;5030098;28;19913;-66
2022/09/12 01:34:49;;;;;;;;;;;17.00;94.00;;;;;;5029979;28;19925;-67
2022/09/12 01:37:33;;;;;;;;;;;16.90;93.30;;;;;;5030024;28;19913;-68
2022/09/12 01:40:03;;;;;;;;;;;16.90;93.80;;;;;;5027057;28;19920;-67
2022/09/12 01:42:39;;;;;;;;;;;16.80;93.80;;;;;;5009653;28;19910;-67
2022/09/12 01:45:15;;;;;;;;;;;16.70;93.70;;;;;;5009408;28;19913;-69
2022/09/12 01:47:55;;;;;;;;;;;16.70;93.90;;;;;;5020152;28;19925;-67
2022/09/12 01:50:25;;;;;;;;;;;16.60;94.00;;;;;;5029393;28;20283;-67
2022/09/12 01:52:54;;;;;;;;;;;16.70;94.00;;;;;;5029711;28;19909;-67
2022/09/12 01:55:23;;;;;;;;;;;16.60;93.70;;;;;;5029713;28;19913;-67
2022/09/12 01:57:56;;;;;;;;;;;16.60;93.90;;;;;;5029114;28;19997;-67
2022/09/12 02:00:23;;;;;;;;;;;16.50;93.70;;;;;;5029591;28;19953;-68
2022/09/12 02:03:09;;;;;;;;;;;16.50;93.70;;;;;;5029526;28;19909;-68
2022/09/12 02:05:40;;;;;;;;;;;16.50;93.80;;;;;;5029618;28;19910;-68
2022/09/12 02:08:13;;;;;;;;;;;16.60;93.90;;;;;;5029130;28;19916;-68
2022/09/12 02:10:49;;;;;;;;;;;16.50;93.70;;;;;;5029307;28;19921;-67
2022/09/12 02:13:21;;;;;;;;;;;16.50;94.30;;;;;;5029351;28;19979;-67
2022/09/12 02:15:53;;;;;;;;;;;16.50;93.80;;;;;;5029309;28;19971;-68
2022/09/12 02:18:20;;;;;;;;;;;16.40;94.20;;;;;;5029145;28;19916;-68
2022/09/12 02:20:47;;;;;;;;;;;16.70;94.30;;;;;;5029437;28;19917;-68
2022/09/12 02:23:25;;;;;;;;;;;16.70;94.10;;;;;;5029336;28;19916;-68
2022/09/12 02:25:54;;;;;;;;;;;16.90;93.90;;;;;;5028944;28;20382;-68
2022/09/12 02:28:29;;;;;;;;;;;17.00;93.10;;;;;;5028964;28;19993;-69
2022/09/12 02:31:00;;;;;;;;;;;17.00;93.80;;;;;;5028993;28;19909;-69
2022/09/12 02:33:32;;;;;;;;;;;17.00;93.60;;;;;;5060750;28;20317;-68
2022/09/12 02:36:21;;;;;;;;;;;16.90;93.70;;;;;;5028492;28;19913;-67
2022/09/12 02:38:48;;;;;;;;;;;16.90;94.00;;;;;;5028595;28;19913;-67
2022/09/12 02:41:17;;;;;;;;;;;16.90;93.70;;;;;;5028737;28;19910;-67
2022/09/12 02:43:43;;;;;;;;;;;16.90;93.80;;;;;;5060499;28;20054;-67
2022/09/12 02:46:14;;;;;;;;;;;16.90;94.10;;;;;;5011263;28;19918;-66
2022/09/12 02:48:42;;;;;;;;;;;17.00;94.20;;;;;;5008954;28;19917;-66
2022/09/12 02:51:10;;;;;;;;;;;16.90;94.50;;;;;;5009349;28;19913;-68
2022/09/12 02:53:37;;;;;;;;;;;17.10;93.70;;;;;;5009029;28;19921;-66
2022/09/12 02:56:07;;;;;;;;;;;17.10;93.80;;;;;;5008858;28;19914;-67
2022/09/12 02:58:33;;;;;;;;;;;17.20;93.50;;;;;;5011726;28;19920;-68
2022/09/12 03:01:23;;;;;;;;;;;17.10;93.20;;;;;;5012565;28;19932;-67
2022/09/12 03:03:50;;;;;;;;;;;17.00;94.10;;;;;;5011963;28;19916;-66
2022/09/12 03:06:20;;;;;;;;;;;17.10;94.90;;;;;;5025876;28;20012;-64
2022/09/12 03:09:25;;;;;;;;;;;17.30;94.10;;;;;;5012166;28;19967;-66
2022/09/12 03:12:23;;;;;;;;;;;17.40;93.50;;;;;;5093256;28;19916;-67
2022/09/12 03:14:53;;;;;;;;;;;17.30;93.90;;;;;;5039155;28;19917;-68
2022/09/12 03:17:38;;;;;;;;;;;17.40;94.00;;;;;;5035158;28;20004;-67
2022/09/12 03:20:17;;;;;;;;;;;17.30;93.80;;;;;;5012187;28;19917;-67
2022/09/12 03:22:43;;;;;;;;;;;17.40;94.10;;;;;;5012406;28;20436;-66
2022/09/12 03:25:16;;;;;;;;;;;17.60;94.10;;;;;;5012103;28;19985;-68
2022/09/12 03:27:49;;;;;;;;;;;17.50;94.20;;;;;;5011711;28;19910;-68
2022/09/12 03:30:16;;;;;;;;;;;17.50;93.70;;;;;;5013919;28;19924;-67
2022/09/12 03:32:47;;;;;;;;;;;17.50;93.90;;;;;;5018468;28;20014;-68
2022/09/12 03:35:15;;;;;;;;;;;17.60;93.50;;;;;;5031684;28;19921;-67
2022/09/12 03:37:42;;;;;;;;;;;17.60;93.80;;;;;;5031132;28;20278;-67
2022/09/12 03:40:09;;;;;;;;;;;17.50;94.00;;;;;;5031827;28;19913;-67
2022/09/12 03:42:36;;;;;;;;;;;17.50;94.00;;;;;;5031411;28;20373;-67
2022/09/12 03:45:02;;;;;;;;;;;17.40;93.60;;;;;;5031684;28;19913;-68
2022/09/12 03:47:30;;;;;;;;;;;17.50;94.20;;;;;;5031514;28;20375;-67
2022/09/12 03:49:56;;;;;;;;;;;17.50;93.80;;;;;;5029576;28;19976;-68
2022/09/12 03:52:23;;;;;;;;;;;17.60;93.90;;;;;;5031467;28;19910;-67
2022/09/12 03:54:50;;;;;;;;;;;17.60;93.60;;;;;;5031442;28;19917;-67
2022/09/12 03:57:17;;;;;;;;;;;17.70;93.40;;;;;;5031300;28;19917;-67
2022/09/12 03:59:43;;;;;;;;;;;18.10;94.00;;;;;;5030874;28;19910;-67
2022/09/12 04:02:13;;;;;;;;;;;18.10;93.70;;;;;;5031580;28;19999;-66
2022/09/12 04:04:42;;;;;;;;;;;17.80;94.30;;;;;;5031512;28;19909;-66
2022/09/12 04:07:10;;;;;;;;;;;17.60;95.10;;;;;;5031161;28;19916;-67
2022/09/12 04:09:36;;;;;;;;;;;17.50;95.20;;;;;;5028961;28;19936;-67
2022/09/12 04:12:03;;;;;;;;;;;17.50;94.80;;;;;;5031232;28;20004;-66
2022/09/12 04:14:30;;;;;;;;;;;17.40;94.80;;;;;;5031213;28;20019;-66
2022/09/12 04:16:56;;;;;;;;;;;17.30;94.50;;;;;;5031051;28;20316;-67
2022/09/12 04:19:24;;;;;;;;;;;17.40;95.20;;;;;;5030873;28;20263;-68
2022/09/12 04:21:51;;;;;;;;;;;17.30;95.00;;;;;;5031082;28;19992;-66
2022/09/12 04:24:18;;;;;;;;;;;17.10;94.70;;;;;;5030787;28;19999;-67
2022/09/12 04:26:44;;;;;;;;;;;17.20;95.30;;;;;;5031085;28;19917;-68
2022/09/12 04:29:13;;;;;;;;;;;17.30;95.50;;;;;;5030836;28;19969;-66
2022/09/12 04:31:41;;;;;;;;;;;17.40;94.70;;;;;;5030815;28;20012;-66
2022/09/12 04:34:07;;;;;;;;;;;17.40;95.20;;;;;;5031010;28;19917;-66
2022/09/12 04:36:34;;;;;;;;;;;17.30;95.10;;;;;;5029598;28;20341;-66
2022/09/12 04:39:01;;;;;;;;;;;17.40;95.40;;;;;;5030643;28;19913;-66
2022/09/12 04:41:29;;;;;;;;;;;17.40;95.10;;;;;;5030947;28;19978;-66
2022/09/12 04:44:01;;;;;;;;;;;17.30;95.00;;;;;;5030398;28;19965;-67
2022/09/12 04:46:29;;;;;;;;;;;17.30;95.60;;;;;;5030780;28;19920;-66
2022/09/12 04:48:56;;;;;;;;;;;17.20;95.70;;;;;;5030262;28;19913;-66
2022/09/12 04:51:27;;;;;;;;;;;17.20;95.90;;;;;;5030849;28;20252;-67
2022/09/12 04:53:58;;;;;;;;;;;17.10;95.10;;;;;;5030520;28;19917;-66
2022/09/12 04:56:25;;;;;;;;;;;17.10;95.50;;;;;;5030629;28;19913;-66
2022/09/12 04:58:52;;;;;;;;;;;17.00;95.90;;;;;;5028853;28;19921;-68
2022/09/12 05:01:20;;;;;;;;;;;17.00;95.70;;;;;;5030676;28;19909;-67
2022/09/12 05:03:47;;;;;;;;;;;16.90;95.90;;;;;;5026424;28;20283;-68
2022/09/12 05:06:15;;;;;;;;;;;17.00;95.90;;;;;;5020687;28;19913;-65
2022/09/12 05:08:42;;;;;;;;;;;17.10;95.80;;;;;;5029799;28;20317;-66
2022/09/12 05:11:16;;;;;;;;;;;17.20;96.00;;;;;;5030220;28;19924;-67
2022/09/12 05:13:43;;;;;;;;;;;17.20;95.00;;;;;;5029754;28;19984;-67
2022/09/12 05:16:11;;;;;;;;;;;17.10;95.00;;;;;;5027086;28;20261;-66
2022/09/12 05:18:38;;;;;;;;;;;17.10;95.40;;;;;;5027854;28;19909;-66
2022/09/12 05:21:08;;;;;;;;;;;17.10;95.60;;;;;;5028749;28;19909;-66
2022/09/12 05:23:35;;;;;;;;;;;17.20;95.00;;;;;;5029770;28;20375;-66
2022/09/12 05:26:02;;;;;;;;;;;17.10;95.40;;;;;;5030008;28;19913;-68
2022/09/12 05:28:30;;;;;;;;;;;17.00;95.60;;;;;;5029503;28;20012;-66
2022/09/12 05:31:04;;;;;;;;;;;16.90;95.10;;;;;;5030143;28;19913;-66
2022/09/12 05:33:31;;;;;;;;;;;16.90;95.30;;;;;;5030126;28;19917;-66
2022/09/12 05:35:58;;;;;;;;;;;16.90;95.60;;;;;;5029747;28;20004;-66
2022/09/12 05:38:27;;;;;;;;;;;16.90;94.50;;;;;;5029641;28;19909;-66
2022/09/12 05:40:53;;;;;;;;;;;16.90;95.10;;;;;;5029717;28;19913;-67
2022/09/12 05:43:20;;;;;;;;;;;16.90;95.50;;;;;;5029848;28;19915;-66
2022/09/12 05:45:47;;;;;;;;;;;17.00;95.40;;;;;;5029517;28;19913;-66
2022/09/12 05:48:13;;;;;;;;;;;17.00;95.70;;;;;;5022884;28;19919;-67
2022/09/12 05:50:41;;;;;;;;;;;16.90;95.10;;;;;;5020538;27;20008;-67
2022/09/12 05:53:07;;;;;;;;;;;16.80;95.40;;;;;;5026920;28;19913;-67
2022/09/12 05:55:35;;;;;;;;;;;16.80;96.00;;;;;;5028471;28;19913;-67
2022/09/12 05:58:02;;;;;;;;;;;16.80;95.80;;;;;;5028880;28;19931;-67
2022/09/12 06:00:28;;;;;;;;;;;16.80;96.10;;;;;;5025392;28;19925;-67
2022/09/12 06:02:55;;;;;;;;;;;16.70;96.30;;;;;;5028813;28;20367;-66
2022/09/12 06:05:22;;;;;;;;;;;16.60;95.90;;;;;;5025641;28;20024;-66
2022/09/12 06:07:48;;;;;;;;;;;16.50;95.70;;;;;;5023898;28;19963;-66
2022/09/12 06:10:16;;;;;;;;;;;16.50;95.80;;;;;;5029184;28;20013;-66
2022/09/12 06:12:43;;;;;;;;;;;16.50;96.30;;;;;;5029249;28;19909;-68
2022/09/12 06:15:10;;;;;;;;;;;16.40;96.50;;;;;;5029053;28;19921;-69
2022/09/12 06:17:37;;;;;;;;;;;16.40;96.30;;;;;;5028524;28;19925;-67
2022/09/12 06:20:03;;;;;;;;;;;16.40;96.40;;;;;;5028064;28;19924;-68
2022/09/12 06:22:30;;;;;;;;;;;16.30;96.00;;;;;;5026235;28;19920;-67
2022/09/12 06:24:57;;;;;;;;;;;16.30;96.30;;;;;;5026996;28;19920;-67
2022/09/12 06:27:23;;;;;;;;;;;16.30;97.10;;;;;;5019600;28;20221;-68
2022/09/12 06:29:50;;;;;;;;;;;16.20;97.20;;;;;;5009218;28;19909;-69
2022/09/12 06:32:17;;;;;;;;;;;16.20;96.70;;;;;;5027487;28;19914;-68
2022/09/12 06:34:47;;;;;;;;;;;16.20;96.30;;;;;;5028412;28;19925;-69
2022/09/12 06:37:13;;;;;;;;;;;16.10;96.90;;;;;;5029151;28;20378;-68
2022/09/12 06:39:40;;;;;;;;;;;16.20;96.30;;;;;;5028456;28;19913;-67
2022/09/12 06:42:07;;;;;;;;;;;16.10;96.60;;;;;;5028880;28;20005;-66
2022/09/12 06:44:33;;;;;;;;;;;16.20;97.00;;;;;;5029129;28;19909;-67
2022/09/12 06:47:00;;;;;;;;;;;16.30;97.20;;;;;;5028720;28;19913;-67
2022/09/12 06:49:27;;;;;;;;;;;16.30;97.40;;;;;;5028430;28;19917;-67
2022/09/12 06:51:53;;;;;;;;;;;16.30;97.50;;;;;;5026567;28;19909;-68
2022/09/12 06:54:20;;;;;;;;;;;16.30;97.40;;;;;;5026582;28;19921;-67
2022/09/12 06:56:47;;;;;;;;;;;16.20;97.50;;;;;;5027017;28;19917;-67
2022/09/12 06:59:13;;;;;;;;;;;16.20;97.50;;;;;;5026604;28;19952;-68
2022/09/12 07:01:40;;;;;;;;;;;16.10;97.70;;;;;;5023560;28;19913;-67
2022/09/12 07:04:07;;;;;;;;;;;16.10;97.70;;;;;;5006538;28;19921;-68
2022/09/12 07:06:39;;;;;;;;;;;16.10;97.60;;;;;;5012497;28;20336;-68
2022/09/12 07:09:07;;;;;;;;;;;16.10;97.80;;;;;;5014957;28;20361;-67
2022/09/12 07:11:35;;;;;;;;;;;16.00;98.10;;;;;;5006360;28;20005;-67
2022/09/12 07:14:02;;;;;;;;;;;15.90;98.10;;;;;;5006457;28;19925;-67
2022/09/12 07:16:29;;;;;;;;;;;16.00;98.00;;;;;;5006475;28;20004;-67
2022/09/12 07:18:57;;;;;;;;;;;16.00;98.20;;;;;;5022835;28;19966;-68
2022/09/12 07:21:25;;;;;;;;;;;15.90;97.80;;;;;;5025816;28;20407;-68
2022/09/12 07:23:54;;;;;;;;;;;15.80;98.00;;;;;;5025462;28;19917;-68
2022/09/12 07:26:20;;;;;;;;;;;15.80;98.00;;;;;;5026123;28;20005;-66
2022/09/12 07:28:52;;;;;;;;;;;15.80;98.10;;;;;;5019391;28;19955;-67
2022/09/12 07:31:20;;;;;;;;;;;15.80;98.50;;;;;;5005950;28;20432;-66
2022/09/12 07:33:47;;;;;;;;;;;15.70;98.60;;;;;;5005946;28;19971;-70
2022/09/12 07:36:15;;;;;;;;;;;15.70;99.10;;;;;;5012504;28;20713;-68
2022/09/12 07:38:42;;;;;;;;;;;15.70;99.10;;;;;;5016446;28;19944;-68
2022/09/12 07:41:15;;;;;;;;;;;15.70;99.10;;;;;;5014669;28;20000;-69
2022/09/12 07:43:42;;;;;;;;;;;15.70;99.40;;;;;;5016428;28;19924;-67
2022/09/12 07:46:09;;;;;;;;;;;15.70;99.20;;;;;;5012370;28;19917;-68
2022/09/12 07:48:36;;;;;;;;;;;15.60;99.20;;;;;;5009324;28;19913;-67
2022/09/12 07:51:04;;;;;;;;;;;15.60;99.20;;;;;;5009809;28;20352;-69
2022/09/12 07:53:32;;;;;;;;;;;15.60;99.30;;;;;;5009450;28;20411;-68
2022/09/12 07:55:59;;;;;;;;;;;15.50;99.50;;;;;;5011905;28;19986;-68
2022/09/12 07:58:26;;;;;;;;;;;15.40;99.50;;;;;;5009114;28;19978;-68
2022/09/12 08:00:53;;;;;;;;;;;15.40;99.90;;;;;;5023496;28;19943;-66
2022/09/12 08:03:19;;;;;;;;;;;15.40;99.90;;;;;;5028778;28;19909;-66
2022/09/12 08:05:46;;;;;;;;;;;15.40;99.90;;;;;;5048716;27;19921;-68
2022/09/12 08:08:13;;;;;;;;;;;15.40;99.90;;;;;;5030899;28;20414;-67
2022/09/12 08:10:40;;;;;;;;;;;15.40;99.90;;;;;;5028760;28;19928;-69
2022/09/12 08:13:07;;;;;;;;;;;15.40;99.90;;;;;;5028370;28;19993;-68
2022/09/12 08:15:34;;;;;;;;;;;15.50;99.90;;;;;;5029055;28;20375;-68
2022/09/12 08:18:01;;;;;;;;;;;15.50;99.90;;;;;;5045040;27;19956;-67
2022/09/12 08:20:29;;;;;;;;;;;15.50;99.90;;;;;;5009278;28;19946;-68
2022/09/12 08:22:55;;;;;;;;;;;15.50;99.90;;;;;;5017182;28;19958;-68
2022/09/12 08:25:22;;;;;;;;;;;15.50;99.90;;;;;;5028749;28;19909;-69
2022/09/12 08:27:49;;;;;;;;;;;15.50;99.90;;;;;;5028276;28;20390;-69
2022/09/12 08:30:15;;;;;;;;;;;15.50;99.90;;;;;;5029069;28;20008;-68
2022/09/12 08:32:42;;;;;;;;;;;15.50;99.90;;;;;;5029103;28;19966;-67
2022/09/12 08:35:09;;;;;;;;;;;15.40;99.90;;;;;;5028614;28;19925;-68
2022/09/12 08:37:35;;;;;;;;;;;15.50;99.90;;;;;;5026045;28;19921;-68
2022/09/12 08:40:05;;;;;;;;;;;15.50;99.90;;;;;;5027991;28;19909;-68
2022/09/12 08:42:47;;;;;;;;;;;15.50;99.90;;;;;;5019785;28;19914;-69
2022/09/12 08:45:22;;;;;;;;;;;15.60;99.90;;;;;;5008936;28;19924;-67
2022/09/12 08:47:49;;;;;;;;;;;15.60;99.90;;;;;;5015157;27;19917;-66
2022/09/12 08:50:17;;;;;;;;;;;15.50;99.90;;;;;;5024937;27;19917;-68
2022/09/12 08:52:50;;;;;;;;;;;15.50;99.90;;;;;;5023771;28;19974;-67
2022/09/12 08:55:30;;;;;;;;;;;15.40;99.90;;;;;;5028309;28;19941;-70
2022/09/12 08:57:59;;;;;;;;;;;15.40;99.90;;;;;;5022667;28;19913;-67
2022/09/12 09:00:34;;;;;;;;;;;15.40;99.90;;;;;;5008768;28;19913;-67
2022/09/12 09:03:04;;;;;;;;;;;15.40;99.90;;;;;;5008558;28;19914;-66
2022/09/12 09:05:33;;;;;;;;;;;15.20;99.90;;;;;;5008637;28;19953;-68
2022/09/12 09:08:09;;;;;;;;;;;15.10;99.90;;;;;;5008512;28;20352;-68
2022/09/12 09:10:42;;;;;;;;;;;15.00;99.90;;;;;;5009998;28;19960;-67
2022/09/12 09:16:21;;;;;;;;;;;14.90;99.90;;;;;;5010646;28;19920;-69
2022/09/12 09:18:48;;;;;;;;;;;14.90;99.90;;;;;;5010239;28;19909;-67
2022/09/12 09:21:41;;;;;;;;;;;14.90;99.90;;;;;;5010619;28;20478;-69
2022/09/12 09:24:10;;;;;;;;;;;14.90;99.90;;;;;;5011719;28;19932;-69
2022/09/12 09:26:50;;;;;;;;;;;14.90;99.90;;;;;;5008537;28;19921;-68
2022/09/12 09:29:19;;;;;;;;;;;14.90;99.90;;;;;;5009283;28;20273;-68
2022/09/12 09:31:51;;;;;;;;;;;14.90;99.90;;;;;;5008317;28;19945;-69
2022/09/12 09:34:22;;;;;;;;;;;14.80;99.90;;;;;;5008345;28;19917;-70
2022/09/12 09:36:50;;;;;;;;;;;14.70;99.90;;;;;;5008656;28;20295;-70
2022/09/12 09:39:24;;;;;;;;;;;14.70;99.90;;;;;;5008974;28;19917;-68
2022/09/12 09:42:09;;;;;;;;;;;14.60;99.90;;;;;;5010029;28;19914;-68
2022/09/12 09:44:36;;;;;;;;;;;14.60;99.90;;;;;;5010030;28;19928;-70
2022/09/12 09:47:04;;;;;;;;;;;14.60;99.90;;;;;;5013796;28;19910;-68
2022/09/12 09:49:32;;;;;;;;;;;14.70;99.90;;;;;;5030249;28;19913;-70
2022/09/12 09:52:00;;;;;;;;;;;14.70;99.90;;;;;;5029468;28;20007;-68
2022/09/12 09:54:34;;;;;;;;;;;14.60;99.90;;;;;;5029528;28;19932;-69
2022/09/12 09:57:03;;;;;;;;;;;14.60;99.90;;;;;;5029495;28;19921;-69
2022/09/12 09:59:32;;;;;;;;;;;14.60;99.90;;;;;;5029725;28;19913;-69
2022/09/12 10:02:02;;;;;;;;;;;14.60;99.90;;;;;;5029422;28;19914;-68
2022/09/12 10:04:30;;;;;;;;;;;14.70;99.90;;;;;;5029577;28;19909;-68
2022/09/12 10:06:58;;;;;;;;;;;14.70;99.90;;;;;;5028786;28;20287;-69
2022/09/12 10:09:25;;;;;;;;;;;14.70;99.90;;;;;;5029242;28;20031;-68
2022/09/12 10:11:53;;;;;;;;;;;14.70;99.90;;;;;;5029193;28;19992;-69
2022/09/12 10:14:36;;;;;;;;;;;14.60;99.90;;;;;;5029305;28;19917;-69
2022/09/12 10:17:21;;;;;;;;;;;14.60;99.90;;;;;;5028946;28;19910;-69
2022/09/12 10:19:48;;;;;;;;;;;14.60;99.90;;;;;;5029064;28;20464;-69
2022/09/12 10:22:19;;;;;;;;;;;14.60;99.90;;;;;;5029350;28;19910;-67
2022/09/12 10:24:48;;;;;;;;;;;14.70;99.90;;;;;;5029069;28;19965;-68
2022/09/12 10:27:19;;;;;;;;;;;14.70;99.90;;;;;;5026571;28;20363;-69
2022/09/12 10:29:46;;;;;;;;;;;14.60;99.90;;;;;;5017644;28;19982;-69
2022/09/12 10:32:20;;;;;;;;;;;14.60;99.90;;;;;;5006891;28;20305;-67
2022/09/12 10:34:47;;;;;;;;;;;14.60;99.90;;;;;;5038670;28;19952;-68
2022/09/12 10:37:18;;;;;;;;;;;14.60;99.90;;;;;;5006998;28;19943;-68
2022/09/12 10:39:53;;;;;;;;;;;14.60;99.90;;;;;;5007263;28;20304;-67
2022/09/12 10:42:38;;;;;;;;;;;14.60;99.90;;;;;;5006882;28;20370;-68
2022/09/12 10:45:05;;;;;;;;;;;14.70;99.90;;;;;;5007344;28;20317;-69
2022/09/12 10:47:32;;;;;;;;;;;14.60;99.90;;;;;;5015883;28;19917;-68
2022/09/12 10:50:17;;;;;;;;;;;14.60;99.90;;;;;;5039104;28;19913;-67
2022/09/12 10:52:43;;;;;;;;;;;14.60;99.90;;;;;;5045422;28;20436;-66
2022/09/12 10:55:14;;;;;;;;;;;14.50;99.90;;;;;;5046255;28;19920;-68
2022/09/12 10:57:54;;;;;;;;;;;14.50;99.90;;;;;;5046035;28;19915;-68
2022/09/12 11:00:26;;;;;;;;;;;14.50;99.90;;;;;;5046194;28;19920;-67
2022/09/12 11:03:12;;;;;;;;;;;14.40;99.90;;;;;;5046574;28;19909;-67
2022/09/12 11:05:49;;;;;;;;;;;14.40;99.90;;;;;;5046569;28;19916;-67
2022/09/12 11:08:18;;;;;;;;;;;14.40;99.90;;;;;;5046007;28;19967;-66
2022/09/12 11:10:57;;;;;;;;;;;14.30;99.90;;;;;;5046640;28;20011;-66
2022/09/12 11:13:31;;;;;;;;;;;14.30;99.90;;;;;;5046625;28;19931;-68
2022/09/12 11:16:18;;;;;;;;;;;14.30;99.90;;;;;;5046043;28;20447;-65
2022/09/12 11:18:54;;;;;;;;;;;14.30;99.90;;;;;;5047963;28;19961;-69
2022/09/12 11:21:27;;;;;;;;;;;14.30;99.90;;;;;;5049975;28;19915;-68
2022/09/12 11:24:20;;;;;;;;;;;14.20;99.90;;;;;;5050281;27;20435;-68
2022/09/12 11:26:47;;;;;;;;;;;14.20;99.90;;;;;;5049847;28;19916;-66
2022/09/12 11:29:14;;;;;;;;;;;14.20;99.90;;;;;;5050172;28;19919;-66
2022/09/12 11:31:43;;;;;;;;;;;14.20;99.90;;;;;;5049425;27;19912;-66
2022/09/12 11:34:10;;;;;;;;;;;14.20;99.90;;;;;;5049542;28;19917;-66
2022/09/12 11:36:47;;;;;;;;;;;14.20;99.90;;;;;;5050035;28;20035;-67
2022/09/12 11:39:24;;;;;;;;;;;14.20;99.90;;;;;;5049893;28;19913;-67
2022/09/12 11:41:55;;;;;;;;;;;14.20;99.90;;;;;;5049678;28;19908;-66
2022/09/12 11:44:23;;;;;;;;;;;14.20;99.90;;;;;;5049684;28;19916;-66
2022/09/12 11:46:50;;;;;;;;;;;14.20;99.90;;;;;;5040978;28;19921;-67
2022/09/12 11:49:43;;;;;;;;;;;14.20;99.90;;;;;;5009588;28;19917;-67
2022/09/12 11:52:14;;;;;;;;;;;14.20;99.90;;;;;;5013597;28;20283;-67
2022/09/12 11:55:16;;;;;;;;;;;14.20;99.90;;;;;;5011844;28;19921;-67
2022/09/12 11:57:44;;;;;;;;;;;14.20;99.90;;;;;;5092057;28;19915;-67
2022/09/12 12:00:19;;;;;;;;;;;14.20;99.90;;;;;;5026418;28;19916;-68
2022/09/12 12:03:01;;;;;;;;;;;14.20;99.90;;;;;;5011859;28;19914;-67
2022/09/12 12:05:39;;;;;;;;;;;14.20;99.90;;;;;;5011812;28;20324;-67
2022/09/12 12:08:06;;;;;;;;;;;14.10;99.90;;;;;;5011282;28;20008;-67
2022/09/12 12:10:36;;;;;;;;;;;14.10;99.90;;;;;;5011827;28;19974;-67
2022/09/12 12:13:07;;;;;;;;;;;14.10;99.90;;;;;;5011602;28;19959;-68
2022/09/12 12:15:36;;;;;;;;;;;14.10;99.90;;;;;;5011094;28;19978;-68
2022/09/12 12:18:05;;;;;;;;;;;14.00;99.90;;;;;;5011220;28;19970;-66
2022/09/12 12:20:32;;;;;;;;;;;14.00;99.90;;;;;;5011676;28;19917;-66
2022/09/12 12:23:00;;;;;;;;;;;14.10;99.90;;;;;;5011336;28;19909;-67
2022/09/12 12:25:48;;;;;;;;;;;14.00;99.90;;;;;;5011445;28;19921;-68
2022/09/12 12:28:34;;;;;;;;;;;13.90;99.90;;;;;;5011065;28;19951;-68
2022/09/12 12:31:01;;;;;;;;;;;14.00;99.90;;;;;;5010722;28;19913;-67
2022/09/12 12:33:30;;;;;;;;;;;13.90;99.90;;;;;;5011706;28;19910;-68
2022/09/12 12:35:58;;;;;;;;;;;13.80;99.90;;;;;;5011033;28;19917;-68
2022/09/12 12:38:31;;;;;;;;;;;13.80;99.90;;;;;;5010850;28;19917;-68
2022/09/12 12:41:16;;;;;;;;;;;13.80;99.90;;;;;;5011463;28;19916;-69
2022/09/12 12:43:47;;;;;;;;;;;13.80;99.90;;;;;;5031192;28;19958;-68
2022/09/12 12:46:14;;;;;;;;;;;13.80;99.90;;;;;;5011192;28;19913;-68
2022/09/12 12:48:50;;;;;;;;;;;13.80;99.90;;;;;;5029716;28;19952;-68
2022/09/12 12:51:25;;;;;;;;;;;13.80;99.90;;;;;;5031049;28;19955;-68
2022/09/12 12:53:52;;;;;;;;;;;13.70;99.90;;;;;;5030613;28;19924;-68
2022/09/12 12:56:39;;;;;;;;;;;13.70;99.90;;;;;;5030826;28;19913;-68
2022/09/12 12:59:20;;;;;;;;;;;13.70;99.90;;;;;;5031089;28;20000;-68
2022/09/12 13:01:48;;;;;;;;;;;13.70;99.90;;;;;;5030717;28;19986;-68
2022/09/12 13:04:17;;;;;;;;;;;13.60;99.90;;;;;;5030883;28;19913;-68
2022/09/12 13:06:46;;;;;;;;;;;13.60;99.90;;;;;;5030630;28;20343;-69
2022/09/12 13:09:44;;;;;;;;;;;13.60;99.90;;;;;;5030687;28;20300;-69
2022/09/12 13:12:17;;;;;;;;;;;13.70;99.90;;;;;;4997588;28;20067;-68
2022/09/12 13:14:48;;;;;;;;;;;13.70;99.90;;;;;;5030579;28;20363;-67
2022/09/12 13:17:25;;;;;;;;;;;13.70;99.90;;;;;;5030670;28;19992;-67
2022/09/12 13:20:21;;;;;;;;;;;13.70;99.90;;;;;;5030480;28;19966;-69
2022/09/12 13:22:49;;;;;;;;;;;13.70;99.90;;;;;;5018185;28;19920;-69
2022/09/12 13:25:19;;;;;;;;;;;13.70;99.90;;;;;;5030884;28;19913;-69
2022/09/12 13:28:03;;;;;;;;;;;13.70;99.90;;;;;;5030366;28;19909;-69
2022/09/12 13:30:33;;;;;;;;;;;13.70;99.90;;;;;;5031551;28;20024;-69
2022/09/12 13:33:06;;;;;;;;;;;13.70;99.90;;;;;;5032164;28;19949;-67
2022/09/12 13:35:48;;;;;;;;;;;13.70;99.90;;;;;;5030769;28;20016;-66
2022/09/12 13:38:28;;;;;;;;;;;13.70;99.90;;;;;;5030211;28;19914;-68
2022/09/12 13:40:55;;;;;;;;;;;13.60;99.90;;;;;;5029830;28;20000;-67
2022/09/12 13:43:28;;;;;;;;;;;13.60;99.90;;;;;;5030614;28;19909;-67
2022/09/12 13:45:55;;;;;;;;;;;13.60;99.90;;;;;;5030392;28;19913;-66
2022/09/12 13:48:24;;;;;;;;;;;13.60;99.90;;;;;;5029868;28;19913;-67
2022/09/12 13:50:58;;;;;;;;;;;13.70;99.90;;;;;;5030216;28;19916;-66
2022/09/12 13:53:29;;;;;;;;;;;13.70;99.90;;;;;;5029867;28;19910;-67
2022/09/12 13:55:59;;;;;;;;;;;13.70;99.90;;;;;;5029828;28;19913;-67
2022/09/12 13:58:30;;;;;;;;;;;13.70;99.90;;;;;;5029759;28;19909;-67
2022/09/12 14:01:00;;;;;;;;;;;13.70;99.90;;;;;;5029957;28;20016;-67
2022/09/12 14:06:17;;;;;;;;;;;13.70;99.90;;;;;;5029858;28;19936;-67
2022/09/12 14:08:45;;;;;;;;;;;13.70;99.90;;;;;;5029277;28;20004;-67
2022/09/12 14:11:20;;;;;;;;;;;13.80;99.90;;;;;;5029763;28;19955;-67
2022/09/12 14:13:47;;;;;;;;;;;13.70;99.90;;;;;;5029375;28;19925;-66
2022/09/12 14:16:15;;;;;;;;;;;13.70;99.90;;;;;;5029593;28;19913;-67
2022/09/12 14:18:46;;;;;;;;;;;13.70;99.90;;;;;;5029375;28;19909;-66
2022/09/12 14:21:35;;;;;;;;;;;13.70;99.90;;;;;;5029604;28;19960;-66
2022/09/12 14:24:04;;;;;;;;;;;13.70;99.90;;;;;;5021969;28;19992;-66
2022/09/12 14:26:35;;;;;;;;;;;13.60;99.90;;;;;;5029206;28;19913;-67
2022/09/12 14:29:06;;;;;;;;;;;13.60;99.90;;;;;;5029462;28;20341;-66
2022/09/12 14:31:38;;;;;;;;;;;13.60;99.90;;;;;;5029492;28;20444;-66
2022/09/12 14:34:09;;;;;;;;;;;13.50;99.90;;;;;;5027972;28;19979;-67
2022/09/12 14:36:44;;;;;;;;;;;13.50;99.90;;;;;;5028800;28;20367;-66
2022/09/12 14:39:21;;;;;;;;;;;13.50;99.90;;;;;;5029245;28;20283;-66
2022/09/12 14:41:48;;;;;;;;;;;13.40;99.90;;;;;;5029007;28;19913;-66
2022/09/12 14:44:25;;;;;;;;;;;13.40;99.90;;;;;;5029132;28;19992;-67